Time;durP1;ratioP1;P1;durP2;ratioP2;P2;SDS_P1;SDS_P2;PMS_P1;PMS_P2;Temp;Humidity;BMP_temperature;BMP_pressure;BME280_temperature;BME280_humidity;BME280_pressure;Samples;Min_cycle;Max_cycle;Signal;HPM_P1;HPM_P2
2022/10/22 00:00:33;;;;;;;15.93;10.95;;;;;;;;;;5021705;28;20429;-81
2022/10/22 00:02:59;;;;;;;13.75;11.27;;;;;;;;;;5021683;28;20426;-81
2022/10/22 00:05:25;;;;;;;17.88;12.00;;;;;;;;;;5023378;28;20438;-81
2022/10/22 00:07:52;;;;;;;17.92;12.43;;;;;;;;;;5018450;28;20429;-81
2022/10/22 00:10:19;;;;;;;21.65;12.65;;;;;;;;;;5023425;28;20431;-81
2022/10/22 00:12:46;;;;;;;19.60;13.20;;;;;;;;;;5021263;28;20427;-81
2022/10/22 00:15:12;;;;;;;17.90;13.15;;;;;;;;;;5022107;28;20506;-81
2022/10/22 00:17:39;;;;;;;20.70;14.77;;;;;;;;;;5023787;28;20814;-81
2022/10/22 00:20:05;;;;;;;24.85;16.92;;;;;;;;;;5022459;28;20988;-81
2022/10/22 00:22:32;;;;;;;24.42;16.90;;;;;;;;;;5020841;28;20418;-81
2022/10/22 00:24:58;;;;;;;24.75;16.45;;;;;;;;;;5021981;28;20426;-81
2022/10/22 00:27:26;;;;;;;21.17;15.73;;;;;;;;;;5021786;28;20800;-81
2022/10/22 00:29:52;;;;;;;19.33;14.68;;;;;;;;;;5018890;28;20425;-81
2022/10/22 00:32:19;;;;;;;17.05;13.55;;;;;;;;;;5020533;28;20459;-81
2022/10/22 00:34:45;;;;;;;21.08;13.93;;;;;;;;;;5019998;28;20940;-81
2022/10/22 00:37:12;;;;;;;17.97;13.03;;;;;;;;;;5020873;28;20467;-81
2022/10/22 00:39:38;;;;;;;21.27;14.85;;;;;;;;;;5020522;28;20437;-81
2022/10/22 00:42:04;;;;;;;19.10;13.45;;;;;;;;;;5021301;28;20398;-81
2022/10/22 00:44:49;;;;;;;25.13;14.25;;;;;;;;;;5021717;28;20431;-81
2022/10/22 00:47:18;;;;;;;24.23;14.18;;;;;;;;;;5017253;28;20412;-81
2022/10/22 00:49:45;;;;;;;22.15;14.45;;;;;;;;;;5021216;28;20407;-81
2022/10/22 00:52:11;;;;;;;21.23;15.23;;;;;;;;;;5021588;28;20491;-81
2022/10/22 00:54:38;;;;;;;23.83;15.05;;;;;;;;;;5020453;28;20463;-81
2022/10/22 00:57:08;;;;;;;20.95;14.40;;;;;;;;;;5020058;28;21098;-81
2022/10/22 00:59:35;;;;;;;22.80;14.40;;;;;;;;;;5024706;28;20436;-81
2022/10/22 01:02:01;;;;;;;17.48;13.85;;;;;;;;;;5022660;28;20437;-81
2022/10/22 01:04:29;;;;;;;19.90;14.68;;;;;;;;;;5019058;28;20436;-81
2022/10/22 01:06:56;;;;;;;23.60;15.73;;;;;;;;;;5019433;28;20440;-80
2022/10/22 01:09:25;;;;;;;22.40;15.57;;;;;;;;;;5022286;28;20438;-81
2022/10/22 01:11:57;;;;;;;30.35;17.20;;;;;;;;;;5021331;28;20537;-81
2022/10/22 01:14:27;;;;;;;20.10;15.75;;;;;;;;;;5020518;28;20438;-81
2022/10/22 01:16:57;;;;;;;19.90;14.90;;;;;;;;;;5019997;28;20440;-81
2022/10/22 01:19:30;;;;;;;21.15;14.90;;;;;;;;;;5020641;28;20423;-81
2022/10/22 01:22:00;;;;;;;22.65;16.67;;;;;;;;;;5021713;28;20438;-85
2022/10/22 01:24:34;;;;;;;27.00;17.02;;;;;;;;;;5020561;28;20451;-81
2022/10/22 01:27:08;;;;;;;24.67;17.27;;;;;;;;;;5021347;28;20435;-81
2022/10/22 01:29:38;;;;;;;25.80;16.57;;;;;;;;;;5016432;28;20444;-81
2022/10/22 01:32:08;;;;;;;23.25;15.52;;;;;;;;;;5018427;28;20400;-81
2022/10/22 01:34:36;;;;;;;18.63;14.85;;;;;;;;;;5020853;28;20444;-81
2022/10/22 01:37:03;;;;;;;22.55;16.60;;;;;;;;;;5020515;28;21816;-81
2022/10/22 01:39:31;;;;;;;28.92;17.60;;;;;;;;;;5022006;28;20430;-81
2022/10/22 01:41:57;;;;;;;27.92;19.25;;;;;;;;;;5019458;28;20432;-81
2022/10/22 01:44:25;;;;;;;25.73;18.33;;;;;;;;;;5021561;28;20436;-81
2022/10/22 01:46:58;;;;;;;23.75;18.52;;;;;;;;;;5017823;28;20431;-81
2022/10/22 01:49:28;;;;;;;22.92;17.60;;;;;;;;;;5023580;28;20494;-81
2022/10/22 01:52:01;;;;;;;29.38;18.23;;;;;;;;;;5018105;28;20916;-81
2022/10/22 01:54:31;;;;;;;27.48;18.77;;;;;;;;;;5020509;28;20442;-81
2022/10/22 01:57:05;;;;;;;31.90;21.58;;;;;;;;;;5018749;28;20485;-81
2022/10/22 01:59:34;;;;;;;29.98;20.55;;;;;;;;;;5016925;28;20447;-81
2022/10/22 02:02:05;;;;;;;31.75;21.40;;;;;;;;;;5021946;28;20436;-81
2022/10/22 02:04:35;;;;;;;36.03;22.33;;;;;;;;;;5020092;28;20440;-81
2022/10/22 02:07:04;;;;;;;39.92;22.60;;;;;;;;;;5021540;28;20499;-81
2022/10/22 02:09:32;;;;;;;31.33;21.23;;;;;;;;;;5019201;28;20443;-81
2022/10/22 02:11:59;;;;;;;31.33;22.35;;;;;;;;;;5021897;28;20431;-81
2022/10/22 02:14:27;;;;;;;34.10;23.30;;;;;;;;;;5023332;28;20439;-80
2022/10/22 02:16:54;;;;;;;36.80;22.97;;;;;;;;;;5021841;28;20457;-81
2022/10/22 02:19:24;;;;;;;35.17;22.23;;;;;;;;;;5020815;28;20436;-81
2022/10/22 02:21:50;;;;;;;34.67;23.67;;;;;;;;;;5024410;28;20415;-81
2022/10/22 02:24:17;;;;;;;31.75;23.17;;;;;;;;;;5024232;28;20806;-81
2022/10/22 02:26:46;;;;;;;33.58;23.88;;;;;;;;;;5025303;28;20419;-81
2022/10/22 02:29:15;;;;;;;36.97;23.70;;;;;;;;;;5021941;28;20454;-81
2022/10/22 02:31:43;;;;;;;32.78;22.75;;;;;;;;;;5024748;28;20446;-81
2022/10/22 02:34:12;;;;;;;32.42;22.50;;;;;;;;;;5023952;28;20419;-81
2022/10/22 02:36:41;;;;;;;33.57;21.90;;;;;;;;;;5023280;28;20520;-81
2022/10/22 02:39:08;;;;;;;32.22;21.92;;;;;;;;;;5021238;28;20427;-81
2022/10/22 02:41:35;;;;;;;29.10;21.73;;;;;;;;;;5023468;28;20441;-81
2022/10/22 02:44:02;;;;;;;27.17;19.45;;;;;;;;;;5023877;28;20427;-81
2022/10/22 02:46:28;;;;;;;26.55;19.52;;;;;;;;;;5024102;28;20781;-81
2022/10/22 02:48:55;;;;;;;28.63;19.40;;;;;;;;;;5020609;28;20433;-81
2022/10/22 02:51:21;;;;;;;30.77;19.40;;;;;;;;;;5022115;28;20431;-81
2022/10/22 02:53:49;;;;;;;26.13;18.83;;;;;;;;;;5022863;28;20835;-81
2022/10/22 02:56:15;;;;;;;26.02;18.80;;;;;;;;;;5023448;28;20934;-81
2022/10/22 02:58:42;;;;;;;25.67;18.80;;;;;;;;;;5025106;28;20430;-81
2022/10/22 03:01:09;;;;;;;26.10;18.60;;;;;;;;;;5022276;28;20476;-81
2022/10/22 03:03:35;;;;;;;27.15;18.30;;;;;;;;;;5022805;28;20428;-81
2022/10/22 03:06:02;;;;;;;26.02;18.77;;;;;;;;;;5022787;28;20473;-81
2022/10/22 03:08:28;;;;;;;31.33;18.60;;;;;;;;;;5023429;28;20437;-81
2022/10/22 03:10:56;;;;;;;26.02;17.38;;;;;;;;;;5022440;28;20433;-81
2022/10/22 03:13:22;;;;;;;20.27;16.30;;;;;;;;;;5023003;28;20434;-81
2022/10/22 03:15:49;;;;;;;20.65;17.20;;;;;;;;;;5022520;28;20436;-81
2022/10/22 03:18:16;;;;;;;29.95;19.38;;;;;;;;;;5023269;28;20426;-81
2022/10/22 03:20:42;;;;;;;25.55;18.10;;;;;;;;;;5022217;28;20442;-81
2022/10/22 03:23:09;;;;;;;27.67;18.67;;;;;;;;;;5021754;28;20432;-81
2022/10/22 03:25:35;;;;;;;26.10;19.85;;;;;;;;;;5021440;28;20448;-81
2022/10/22 03:28:05;;;;;;;25.65;18.00;;;;;;;;;;5022603;28;20426;-81
2022/10/22 03:30:31;;;;;;;26.13;19.00;;;;;;;;;;5023510;28;20436;-81
2022/10/22 03:32:57;;;;;;;27.65;18.85;;;;;;;;;;5020888;28;20435;-81
2022/10/22 03:35:24;;;;;;;25.45;17.70;;;;;;;;;;5022824;28;20782;-81
2022/10/22 03:37:52;;;;;;;26.80;18.83;;;;;;;;;;5023480;28;20427;-81
2022/10/22 03:40:18;;;;;;;25.15;17.42;;;;;;;;;;5024466;28;20955;-81
2022/10/22 03:42:45;;;;;;;24.57;16.60;;;;;;;;;;5023468;28;20920;-81
2022/10/22 03:45:13;;;;;;;24.52;16.92;;;;;;;;;;5023224;28;20446;-81
2022/10/22 03:47:41;;;;;;;26.40;18.20;;;;;;;;;;5019712;28;20465;-81
2022/10/22 03:50:08;;;;;;;22.60;17.95;;;;;;;;;;5020819;28;20430;-81
2022/10/22 03:52:38;;;;;;;23.05;19.13;;;;;;;;;;5021244;28;20431;-80
2022/10/22 03:55:05;;;;;;;25.33;16.90;;;;;;;;;;5021356;28;20412;-81
2022/10/22 03:57:31;;;;;;;21.50;16.83;;;;;;;;;;5005934;28;20419;-81
2022/10/22 03:59:58;;;;;;;22.77;16.80;;;;;;;;;;5021111;28;20465;-81
2022/10/22 04:02:26;;;;;;;23.20;17.35;;;;;;;;;;5024394;28;20451;-81
2022/10/22 04:04:53;;;;;;;25.38;17.30;;;;;;;;;;5021185;28;20438;-81
2022/10/22 04:07:19;;;;;;;19.60;15.27;;;;;;;;;;5018274;28;20511;-81
2022/10/22 04:09:48;;;;;;;23.27;16.50;;;;;;;;;;5020050;28;20436;-81
2022/10/22 04:12:16;;;;;;;22.55;16.95;;;;;;;;;;5019366;28;20416;-81
2022/10/22 04:14:42;;;;;;;24.13;17.17;;;;;;;;;;5024162;28;20449;-81
2022/10/22 04:17:10;;;;;;;23.20;16.42;;;;;;;;;;5018203;28;20422;-81
2022/10/22 04:19:38;;;;;;;21.60;17.35;;;;;;;;;;5017924;28;20802;-81
2022/10/22 04:22:04;;;;;;;23.77;17.20;;;;;;;;;;5020663;28;20445;-81
2022/10/22 04:24:31;;;;;;;21.58;16.73;;;;;;;;;;5020570;28;20443;-81
2022/10/22 04:26:58;;;;;;;26.67;18.00;;;;;;;;;;5018953;28;20459;-81
2022/10/22 04:29:24;;;;;;;27.35;18.17;;;;;;;;;;5019218;28;20455;-81
2022/10/22 04:31:51;;;;;;;27.40;18.30;;;;;;;;;;5021901;28;20434;-81
2022/10/22 04:34:17;;;;;;;23.45;15.50;;;;;;;;;;5042675;28;20427;-81
2022/10/22 04:36:45;;;;;;;22.80;16.30;;;;;;;;;;5043136;28;20439;-81
2022/10/22 04:39:11;;;;;;;23.02;15.27;;;;;;;;;;5020655;28;20419;-81
2022/10/22 04:41:38;;;;;;;22.47;14.93;;;;;;;;;;5022882;28;20438;-81
2022/10/22 04:44:05;;;;;;;22.85;14.60;;;;;;;;;;5040927;28;20433;-80
2022/10/22 04:46:33;;;;;;;24.42;14.95;;;;;;;;;;5040766;28;20440;-81
2022/10/22 04:48:59;;;;;;;23.43;16.40;;;;;;;;;;5023775;28;20793;-81
2022/10/22 04:51:27;;;;;;;22.65;15.70;;;;;;;;;;5019964;28;20439;-81
2022/10/22 04:53:54;;;;;;;21.60;16.40;;;;;;;;;;5019874;28;20426;-81
2022/10/22 04:56:22;;;;;;;24.33;16.70;;;;;;;;;;5022147;28;21138;-81
2022/10/22 04:58:49;;;;;;;26.67;16.40;;;;;;;;;;5023175;28;20452;-81
2022/10/22 05:01:17;;;;;;;24.15;16.80;;;;;;;;;;5019590;28;20431;-81
2022/10/22 05:03:44;;;;;;;25.50;18.23;;;;;;;;;;5018474;28;20425;-81
2022/10/22 05:06:10;;;;;;;21.17;17.50;;;;;;;;;;5019519;28;20427;-81
2022/10/22 05:08:36;;;;;;;21.95;16.85;;;;;;;;;;5021716;28;20430;-81
2022/10/22 05:11:11;;;;;;;22.50;16.20;;;;;;;;;;5020834;28;20430;-81
2022/10/22 05:13:38;;;;;;;20.80;16.00;;;;;;;;;;5019450;28;20428;-81
2022/10/22 05:16:04;;;;;;;22.75;15.35;;;;;;;;;;5022600;28;20436;-81
2022/10/22 05:18:33;;;;;;;20.85;15.55;;;;;;;;;;5022165;28;20773;-81
2022/10/22 05:21:00;;;;;;;21.37;16.20;;;;;;;;;;5021278;28;20440;-81
2022/10/22 05:23:27;;;;;;;20.25;15.40;;;;;;;;;;5021233;28;20426;-81
2022/10/22 05:25:53;;;;;;;19.15;15.30;;;;;;;;;;5020767;28;20428;-81
2022/10/22 05:28:25;;;;;;;19.25;13.85;;;;;;;;;;5019979;28;20437;-81
2022/10/22 05:30:54;;;;;;;20.92;13.88;;;;;;;;;;5022980;28;20435;-81
2022/10/22 05:33:21;;;;;;;17.25;13.00;;;;;;;;;;5020767;28;20776;-81
2022/10/22 05:35:47;;;;;;;21.63;14.43;;;;;;;;;;5020187;28;20427;-81
2022/10/22 05:38:14;;;;;;;18.42;14.30;;;;;;;;;;5021827;28;20427;-81
2022/10/22 05:40:40;;;;;;;20.17;15.05;;;;;;;;;;5022590;28;20436;-81
2022/10/22 05:43:07;;;;;;;19.80;14.43;;;;;;;;;;5022321;28;20429;-81
2022/10/22 05:45:37;;;;;;;19.95;14.30;;;;;;;;;;5018532;28;20439;-81
2022/10/22 05:48:03;;;;;;;21.13;15.00;;;;;;;;;;5025703;28;20422;-81
2022/10/22 05:50:30;;;;;;;21.52;14.75;;;;;;;;;;5025204;28;20431;-81
2022/10/22 05:52:56;;;;;;;22.58;15.93;;;;;;;;;;5026417;28;20427;-81
2022/10/22 05:55:23;;;;;;;22.77;16.10;;;;;;;;;;5025957;28;20435;-81
2022/10/22 05:57:49;;;;;;;42.17;18.58;;;;;;;;;;5020671;28;20934;-81
2022/10/22 06:00:16;;;;;;;23.13;16.50;;;;;;;;;;5026095;28;20426;-81
2022/10/22 06:02:49;;;;;;;20.45;14.80;;;;;;;;;;5023628;28;21104;-81
2022/10/22 06:05:15;;;;;;;25.50;16.33;;;;;;;;;;5021520;28;20426;-81
2022/10/22 06:07:42;;;;;;;21.50;16.15;;;;;;;;;;5023239;28;20416;-81
2022/10/22 06:10:09;;;;;;;19.30;14.60;;;;;;;;;;5024080;28;20433;-81
2022/10/22 06:12:36;;;;;;;19.25;14.90;;;;;;;;;;5022055;28;20808;-81
2022/10/22 06:15:02;;;;;;;19.42;14.52;;;;;;;;;;5026680;28;20438;-81
2022/10/22 06:17:29;;;;;;;21.75;16.23;;;;;;;;;;5023502;28;20421;-81
2022/10/22 06:19:57;;;;;;;23.98;15.98;;;;;;;;;;5025524;28;20439;-81
2022/10/22 06:22:23;;;;;;;20.83;15.00;;;;;;;;;;5023353;28;20422;-81
2022/10/22 06:24:49;;;;;;;21.40;15.40;;;;;;;;;;5026583;28;20435;-81
2022/10/22 06:27:16;;;;;;;23.77;17.02;;;;;;;;;;5022047;28;20434;-81
2022/10/22 06:29:43;;;;;;;22.77;16.30;;;;;;;;;;5024560;28;20448;-81
2022/10/22 06:32:09;;;;;;;21.90;16.08;;;;;;;;;;5025331;28;20783;-81
2022/10/22 06:34:36;;;;;;;24.27;17.45;;;;;;;;;;5023386;28;20438;-81
2022/10/22 06:37:03;;;;;;;22.92;16.52;;;;;;;;;;5023513;28;20438;-81
2022/10/22 06:39:30;;;;;;;23.80;16.70;;;;;;;;;;5022417;28;20492;-81
2022/10/22 06:41:56;;;;;;;25.77;18.17;;;;;;;;;;5024750;28;20411;-81
2022/10/22 06:44:23;;;;;;;24.13;18.35;;;;;;;;;;5026239;28;20413;-81
2022/10/22 06:46:50;;;;;;;25.17;17.73;;;;;;;;;;5028264;28;20410;-81
2022/10/22 06:49:17;;;;;;;28.87;18.40;;;;;;;;;;5026815;28;20522;-81
2022/10/22 06:51:43;;;;;;;28.23;19.70;;;;;;;;;;5023140;28;20434;-82
2022/10/22 06:54:11;;;;;;;23.13;17.70;;;;;;;;;;5022588;28;20810;-81
2022/10/22 06:56:38;;;;;;;24.63;18.27;;;;;;;;;;5024852;28;20513;-81
2022/10/22 06:59:04;;;;;;;25.10;18.42;;;;;;;;;;5021598;28;20442;-80
2022/10/22 07:01:31;;;;;;;28.05;17.48;;;;;;;;;;5023227;28;20798;-81
2022/10/22 07:03:58;;;;;;;22.70;17.80;;;;;;;;;;5021109;28;20953;-81
2022/10/22 07:06:25;;;;;;;27.52;18.17;;;;;;;;;;5021703;28;20942;-81
2022/10/22 07:08:52;;;;;;;29.50;19.35;;;;;;;;;;5020744;28;20440;-81
2022/10/22 07:11:20;;;;;;;30.55;20.35;;;;;;;;;;5022414;28;20433;-81
2022/10/22 07:13:47;;;;;;;32.42;22.00;;;;;;;;;;5021959;28;20427;-81
2022/10/22 07:16:14;;;;;;;32.63;23.23;;;;;;;;;;5022288;28;20450;-82
2022/10/22 07:18:41;;;;;;;37.45;25.92;;;;;;;;;;5020469;28;20426;-81
2022/10/22 07:21:08;;;;;;;51.53;35.08;;;;;;;;;;5022199;28;20573;-80
2022/10/22 07:23:35;;;;;;;44.38;31.27;;;;;;;;;;5019567;28;20440;-81
2022/10/22 07:26:02;;;;;;;46.00;32.03;;;;;;;;;;5019431;28;20427;-81
2022/10/22 07:28:31;;;;;;;39.97;26.95;;;;;;;;;;5019648;28;20924;-81
2022/10/22 07:30:57;;;;;;;48.15;30.33;;;;;;;;;;5025643;28;20419;-81
2022/10/22 07:33:24;;;;;;;47.78;31.30;;;;;;;;;;5020864;28;20423;-80
2022/10/22 07:35:50;;;;;;;39.70;28.17;;;;;;;;;;5022839;28;20435;-81
2022/10/22 07:38:16;;;;;;;41.28;28.23;;;;;;;;;;5023783;28;20419;-81
2022/10/22 07:40:43;;;;;;;43.67;30.05;;;;;;;;;;5024742;28;20426;-81
2022/10/22 07:43:09;;;;;;;39.30;27.30;;;;;;;;;;5020462;28;20923;-81
2022/10/22 07:45:37;;;;;;;45.60;29.63;;;;;;;;;;5025358;28;20435;-81
2022/10/22 07:48:05;;;;;;;38.28;26.98;;;;;;;;;;5023472;28;20422;-81
2022/10/22 07:50:31;;;;;;;39.88;26.58;;;;;;;;;;5023777;28;20438;-81
2022/10/22 07:52:58;;;;;;;38.70;26.00;;;;;;;;;;5022775;28;20967;-81
2022/10/22 07:55:24;;;;;;;38.47;26.85;;;;;;;;;;5024680;28;20435;-81
2022/10/22 07:57:50;;;;;;;39.10;26.55;;;;;;;;;;5021567;28;20435;-81
2022/10/22 08:00:17;;;;;;;37.80;27.55;;;;;;;;;;5021800;28;20417;-81
2022/10/22 08:02:45;;;;;;;38.95;26.90;;;;;;;;;;5022181;28;20438;-81
2022/10/22 08:05:12;;;;;;;40.72;26.05;;;;;;;;;;5023126;28;20788;-81
2022/10/22 08:07:39;;;;;;;38.87;26.90;;;;;;;;;;5020987;28;20426;-81
2022/10/22 08:10:05;;;;;;;42.40;27.13;;;;;;;;;;5022708;28;20920;-81
2022/10/22 08:12:32;;;;;;;36.17;26.25;;;;;;;;;;5022940;28;20438;-81
2022/10/22 08:14:59;;;;;;;37.33;27.10;;;;;;;;;;5021612;28;20918;-81
2022/10/22 08:17:26;;;;;;;37.05;26.10;;;;;;;;;;5018292;28;20482;-81
2022/10/22 08:19:53;;;;;;;38.92;27.05;;;;;;;;;;5020948;28;20431;-81
2022/10/22 08:22:20;;;;;;;36.33;27.10;;;;;;;;;;5022901;28;20786;-81
2022/10/22 08:24:46;;;;;;;39.93;26.90;;;;;;;;;;5022381;28;20431;-81
2022/10/22 08:27:13;;;;;;;37.15;26.90;;;;;;;;;;5019435;28;20416;-81
2022/10/22 08:29:40;;;;;;;35.20;26.33;;;;;;;;;;5020499;28;20438;-80
2022/10/22 08:32:06;;;;;;;36.15;26.13;;;;;;;;;;5020900;28;20493;-80
2022/10/22 08:34:33;;;;;;;33.70;25.80;;;;;;;;;;5024225;28;20850;-79
2022/10/22 08:37:01;;;;;;;31.77;23.77;;;;;;;;;;5019178;28;20434;-79
2022/10/22 08:39:28;;;;;;;31.50;23.92;;;;;;;;;;5021173;28;20796;-79
2022/10/22 08:42:01;;;;;;;29.08;21.70;;;;;;;;;;5025589;28;20445;-80
2022/10/22 08:44:34;;;;;;;27.67;21.67;;;;;;;;;;5025825;28;20415;-80
2022/10/22 08:47:18;;;;;;;31.42;21.25;;;;;;;;;;5028793;28;20414;-79
2022/10/22 08:49:44;;;;;;;29.15;19.70;;;;;;;;;;5024718;28;20431;-80
2022/10/22 08:52:15;;;;;;;24.00;18.90;;;;;;;;;;5026295;28;20415;-79
2022/10/22 08:54:47;;;;;;;24.30;18.77;;;;;;;;;;5026217;28;20430;-80
2022/10/22 08:57:18;;;;;;;26.45;18.48;;;;;;;;;;5026515;28;20933;-79
2022/10/22 08:59:46;;;;;;;23.13;17.98;;;;;;;;;;5027367;28;20430;-80
2022/10/22 09:02:19;;;;;;;23.13;16.70;;;;;;;;;;5026822;28;21088;-79
2022/10/22 09:04:49;;;;;;;21.52;16.20;;;;;;;;;;5024369;28;20438;-79
2022/10/22 09:07:17;;;;;;;21.30;16.30;;;;;;;;;;5022764;28;20423;-80
2022/10/22 09:09:47;;;;;;;18.02;15.55;;;;;;;;;;5027646;28;20961;-79
2022/10/22 09:12:15;;;;;;;22.05;16.88;;;;;;;;;;5025449;28;20481;-80
2022/10/22 09:14:41;;;;;;;21.17;16.20;;;;;;;;;;5026389;28;20436;-81
2022/10/22 09:17:21;;;;;;;25.42;16.30;;;;;;;;;;5023258;28;20415;-80
2022/10/22 09:19:57;;;;;;;17.60;14.73;;;;;;;;;;5020198;28;20443;-79
2022/10/22 09:22:30;;;;;;;19.17;13.52;;;;;;;;;;5026980;28;20430;-79
2022/10/22 09:24:58;;;;;;;18.55;12.55;;;;;;;;;;5027599;28;20437;-79
2022/10/22 09:27:28;;;;;;;16.80;12.57;;;;;;;;;;5029477;28;20433;-79
2022/10/22 09:29:56;;;;;;;17.50;11.63;;;;;;;;;;5029221;28;20432;-79
2022/10/22 09:32:23;;;;;;;15.25;11.75;;;;;;;;;;5029466;28;20411;-79
2022/10/22 09:34:49;;;;;;;16.42;10.65;;;;;;;;;;5023274;28;20432;-79
2022/10/22 09:37:17;;;;;;;14.00;10.60;;;;;;;;;;5029891;28;20418;-79
2022/10/22 09:39:45;;;;;;;20.85;10.90;;;;;;;;;;5027354;28;20415;-79
2022/10/22 09:42:14;;;;;;;14.18;10.70;;;;;;;;;;5025440;28;20418;-79
2022/10/22 09:44:41;;;;;;;15.82;9.98;;;;;;;;;;5032521;28;20509;-80
2022/10/22 09:47:07;;;;;;;17.88;11.13;;;;;;;;;;5029241;28;20465;-80
2022/10/22 09:49:35;;;;;;;16.00;10.60;;;;;;;;;;5027130;28;20437;-79
2022/10/22 09:52:02;;;;;;;16.88;9.85;;;;;;;;;;5028237;28;20816;-81
2022/10/22 09:54:38;;;;;;;15.40;10.65;;;;;;;;;;5031340;28;20431;-80
2022/10/22 09:57:13;;;;;;;16.15;10.80;;;;;;;;;;5028631;28;20947;-79
2022/10/22 09:59:40;;;;;;;17.97;11.33;;;;;;;;;;5031278;28;20438;-80
2022/10/22 10:02:13;;;;;;;17.30;11.18;;;;;;;;;;5030916;28;20465;-79
2022/10/22 10:04:41;;;;;;;16.00;10.30;;;;;;;;;;5027025;28;20816;-79
2022/10/22 10:07:15;;;;;;;15.52;11.10;;;;;;;;;;5029718;28;20949;-80
2022/10/22 10:09:41;;;;;;;16.50;11.17;;;;;;;;;;5028817;28;20439;-79
2022/10/22 10:12:16;;;;;;;19.85;11.35;;;;;;;;;;5028793;28;20908;-80
2022/10/22 10:14:47;;;;;;;15.02;10.15;;;;;;;;;;5029600;28;20431;-80
2022/10/22 10:17:19;;;;;;;16.57;10.07;;;;;;;;;;5025156;28;20405;-80
2022/10/22 10:19:51;;;;;;;16.83;9.50;;;;;;;;;;5029615;28;20419;-80
2022/10/22 10:22:23;;;;;;;14.67;9.90;;;;;;;;;;5026749;28;20909;-80
2022/10/22 10:24:56;;;;;;;14.52;10.00;;;;;;;;;;5027871;28;20443;-80
2022/10/22 10:27:27;;;;;;;11.10;9.60;;;;;;;;;;5027794;28;20416;-80
2022/10/22 10:29:57;;;;;;;13.25;10.10;;;;;;;;;;5028630;28;20442;-80
2022/10/22 10:32:30;;;;;;;12.90;9.13;;;;;;;;;;5025726;28;20413;-80
2022/10/22 10:35:00;;;;;;;12.10;8.65;;;;;;;;;;5026017;28;20934;-80
2022/10/22 10:37:29;;;;;;;11.00;8.30;;;;;;;;;;5026442;28;20413;-80
2022/10/22 10:40:03;;;;;;;14.82;8.30;;;;;;;;;;5028874;28;20438;-80
2022/10/22 10:42:34;;;;;;;13.63;7.43;;;;;;;;;;5027849;28;20415;-80
2022/10/22 10:45:07;;;;;;;12.40;8.18;;;;;;;;;;5027967;28;20510;-80
2022/10/22 10:47:46;;;;;;;14.60;7.80;;;;;;;;;;5026777;28;20419;-80
2022/10/22 10:50:16;;;;;;;9.88;8.27;;;;;;;;;;5030781;28;20435;-80
2022/10/22 10:52:45;;;;;;;16.67;7.60;;;;;;;;;;5025287;28;20794;-80
2022/10/22 10:55:16;;;;;;;12.32;7.30;;;;;;;;;;5028759;28;20440;-80
2022/10/22 10:57:49;;;;;;;14.18;7.75;;;;;;;;;;5025790;28;20914;-80
2022/10/22 11:00:18;;;;;;;11.97;7.53;;;;;;;;;;5027623;28;20444;-80
2022/10/22 11:03:05;;;;;;;11.07;7.72;;;;;;;;;;5026417;28;20822;-80
2022/10/22 11:05:38;;;;;;;12.30;8.15;;;;;;;;;;5025247;28;20434;-79
2022/10/22 11:08:06;;;;;;;11.27;7.85;;;;;;;;;;5022680;28;21344;-79
2022/10/22 11:10:36;;;;;;;17.10;7.80;;;;;;;;;;5028666;28;20439;-80
2022/10/22 11:13:12;;;;;;;16.83;7.77;;;;;;;;;;5025376;28;20425;-80
2022/10/22 11:15:39;;;;;;;12.40;8.30;;;;;;;;;;5025816;28;20435;-79
2022/10/22 11:18:12;;;;;;;13.17;7.60;;;;;;;;;;5026216;28;20423;-82
2022/10/22 11:20:43;;;;;;;13.40;9.05;;;;;;;;;;5026943;28;20431;-81
2022/10/22 11:23:13;;;;;;;14.18;8.10;;;;;;;;;;5027514;28;20434;-81
2022/10/22 11:25:42;;;;;;;10.80;7.20;;;;;;;;;;5024111;28;20445;-81
2022/10/22 11:28:13;;;;;;;14.40;6.85;;;;;;;;;;5028020;28;20442;-82
2022/10/22 11:30:41;;;;;;;14.15;7.00;;;;;;;;;;5026717;28;20453;-82
2022/10/22 11:33:11;;;;;;;14.73;7.80;;;;;;;;;;5025774;28;20427;-81
2022/10/22 11:35:39;;;;;;;11.70;7.20;;;;;;;;;;5024777;28;20435;-79
2022/10/22 11:38:08;;;;;;;12.25;6.35;;;;;;;;;;5025427;28;20436;-82
2022/10/22 11:40:36;;;;;;;11.65;5.90;;;;;;;;;;5026447;28;20433;-81
2022/10/22 11:43:04;;;;;;;11.73;5.38;;;;;;;;;;5026718;28;20419;-81
2022/10/22 11:45:35;;;;;;;12.05;5.20;;;;;;;;;;5025641;28;20432;-81
2022/10/22 11:48:07;;;;;;;10.63;5.30;;;;;;;;;;5024132;28;20429;-81
2022/10/22 11:50:49;;;;;;;10.02;4.70;;;;;;;;;;5025690;28;20465;-81
2022/10/22 11:53:18;;;;;;;11.90;4.95;;;;;;;;;;5025653;28;20873;-81
2022/10/22 11:55:47;;;;;;;15.45;5.80;;;;;;;;;;5023025;28;20464;-81
2022/10/22 11:58:30;;;;;;;11.60;5.10;;;;;;;;;;5025708;28;20434;-81
2022/10/22 12:00:58;;;;;;;13.15;5.97;;;;;;;;;;5028307;28;20413;-81
2022/10/22 12:03:39;;;;;;;12.90;5.68;;;;;;;;;;5026068;28;20422;-82
2022/10/22 12:06:10;;;;;;;10.13;5.53;;;;;;;;;;5024739;28;21247;-80
2022/10/22 12:08:41;;;;;;;15.20;6.32;;;;;;;;;;5024681;28;20430;-80
2022/10/22 12:11:14;;;;;;;11.70;5.60;;;;;;;;;;5025971;28;20423;-80
2022/10/22 12:13:59;;;;;;;9.85;5.28;;;;;;;;;;5027802;28;20423;-80
2022/10/22 12:16:29;;;;;;;13.10;5.72;;;;;;;;;;5023333;28;20513;-80
2022/10/22 12:18:58;;;;;;;12.13;5.80;;;;;;;;;;5024885;28;20434;-80
2022/10/22 12:21:25;;;;;;;10.85;5.38;;;;;;;;;;5023660;28;20442;-81
2022/10/22 12:23:51;;;;;;;12.95;5.47;;;;;;;;;;5025214;28;20427;-80
2022/10/22 12:26:25;;;;;;;11.60;5.60;;;;;;;;;;5028095;28;20430;-80
2022/10/22 12:28:56;;;;;;;10.05;5.38;;;;;;;;;;5027926;28;20962;-80
2022/10/22 12:31:22;;;;;;;7.78;4.72;;;;;;;;;;5025257;28;20797;-81
2022/10/22 12:33:55;;;;;;;11.10;5.40;;;;;;;;;;5026792;28;20419;-80
2022/10/22 12:36:22;;;;;;;12.13;5.25;;;;;;;;;;5026655;28;20438;-80
2022/10/22 12:38:48;;;;;;;7.63;4.90;;;;;;;;;;5025835;28;20427;-80
2022/10/22 12:41:17;;;;;;;10.23;4.95;;;;;;;;;;5023718;28;20439;-80
2022/10/22 12:43:44;;;;;;;15.10;5.85;;;;;;;;;;5021604;28;20455;-80
2022/10/22 12:46:12;;;;;;;12.75;5.70;;;;;;;;;;5029997;28;20853;-80
2022/10/22 12:48:40;;;;;;;12.88;5.40;;;;;;;;;;5026363;28;20429;-81
2022/10/22 12:51:08;;;;;;;13.80;5.90;;;;;;;;;;5023230;28;20428;-80
2022/10/22 12:53:36;;;;;;;10.93;6.05;;;;;;;;;;5024300;28;20451;-80
2022/10/22 12:56:05;;;;;;;8.85;5.10;;;;;;;;;;5025665;28;20494;-81
2022/10/22 12:58:35;;;;;;;13.48;5.65;;;;;;;;;;5024246;28;20407;-80
2022/10/22 13:01:05;;;;;;;10.82;5.97;;;;;;;;;;5025562;28;20918;-80
2022/10/22 13:03:34;;;;;;;13.23;5.90;;;;;;;;;;5028226;28;20435;-80
2022/10/22 13:06:23;;;;;;;12.77;6.57;;;;;;;;;;5039777;28;20424;-80
2022/10/22 13:08:55;;;;;;;13.45;6.80;;;;;;;;;;5024945;28;20432;-80
2022/10/22 13:11:22;;;;;;;14.63;6.88;;;;;;;;;;5026914;28;20431;-80
2022/10/22 13:13:48;;;;;;;15.15;7.30;;;;;;;;;;5028055;28;20426;-80
2022/10/22 13:16:15;;;;;;;11.88;6.75;;;;;;;;;;5026130;28;20428;-80
2022/10/22 13:18:42;;;;;;;12.35;7.25;;;;;;;;;;5022609;28;20950;-82
2022/10/22 13:21:22;;;;;;;12.13;6.97;;;;;;;;;;5025749;28;20425;-82
2022/10/22 13:23:52;;;;;;;14.73;8.53;;;;;;;;;;5023284;28;20427;-82
2022/10/22 13:26:19;;;;;;;13.20;8.45;;;;;;;;;;5027865;28;20800;-81
2022/10/22 13:28:50;;;;;;;10.70;8.30;;;;;;;;;;5040922;28;20419;-81
2022/10/22 13:31:18;;;;;;;15.15;7.80;;;;;;;;;;5042988;28;20510;-81
2022/10/22 13:33:45;;;;;;;14.50;8.10;;;;;;;;;;5027230;28;20444;-82
2022/10/22 13:36:13;;;;;;;14.57;7.40;;;;;;;;;;5021145;28;20461;-81
2022/10/22 13:38:41;;;;;;;15.02;7.55;;;;;;;;;;5020616;28;20504;-80
2022/10/22 13:41:18;;;;;;;15.43;7.87;;;;;;;;;;5008172;28;20425;-82
2022/10/22 13:43:44;;;;;;;14.88;7.40;;;;;;;;;;5025063;28;20954;-82
2022/10/22 13:46:11;;;;;;;14.15;7.50;;;;;;;;;;5021918;28;20418;-80
2022/10/22 13:48:38;;;;;;;12.52;7.72;;;;;;;;;;5021827;28;20490;-80
2022/10/22 13:51:06;;;;;;;12.82;7.30;;;;;;;;;;5023376;28;20825;-82
2022/10/22 13:53:33;;;;;;;12.88;7.50;;;;;;;;;;5021822;28;20434;-79
2022/10/22 13:56:00;;;;;;;13.13;7.20;;;;;;;;;;5022566;28;20439;-82
2022/10/22 13:58:27;;;;;;;9.15;6.70;;;;;;;;;;5023995;28;20824;-79
2022/10/22 14:00:55;;;;;;;13.25;7.20;;;;;;;;;;5021833;28;20427;-82
2022/10/22 14:03:24;;;;;;;15.25;7.20;;;;;;;;;;5020471;28;20419;-81
2022/10/22 14:05:50;;;;;;;10.90;6.55;;;;;;;;;;5023067;28;20430;-79
2022/10/22 14:08:18;;;;;;;16.10;7.47;;;;;;;;;;5027192;28;20430;-81
2022/10/22 14:10:44;;;;;;;10.85;6.80;;;;;;;;;;5027742;28;20435;-81
2022/10/22 14:13:13;;;;;;;10.57;6.60;;;;;;;;;;5027189;28;20424;-81
2022/10/22 14:15:39;;;;;;;11.75;6.70;;;;;;;;;;5028427;28;20485;-81
2022/10/22 14:18:06;;;;;;;14.52;6.70;;;;;;;;;;5026520;28;20814;-81
2022/10/22 14:20:35;;;;;;;11.20;6.82;;;;;;;;;;5028406;28;20421;-81
2022/10/22 14:23:03;;;;;;;12.43;6.70;;;;;;;;;;5025390;28;20450;-81
2022/10/22 14:25:31;;;;;;;12.35;7.00;;;;;;;;;;5029551;28;20426;-81
2022/10/22 14:27:58;;;;;;;11.65;6.40;;;;;;;;;;5023239;28;20427;-81